createdAt,value
2022-12-25T00:01:56.931Z,97046.00
2022-12-25T00:04:02.343Z,97044.66
2022-12-25T00:06:08.444Z,97050.19
2022-12-25T00:08:14.161Z,97052.03
2022-12-25T00:10:19.547Z,97058.09
2022-12-25T00:12:24.872Z,97061.53
2022-12-25T00:14:30.103Z,97060.47
2022-12-25T00:16:38.566Z,97059.66
2022-12-25T00:18:44.095Z,97062.31
2022-12-25T00:20:58.230Z,97064.44
2022-12-25T00:23:03.450Z,97070.75
2022-12-25T00:25:09.777Z,97070.75
2022-12-25T00:27:15.119Z,97068.66
2022-12-25T00:29:20.471Z,97068.66
2022-12-25T00:31:27.561Z,97066.28
2022-12-25T00:33:38.133Z,97076.03
2022-12-25T00:35:43.465Z,97072.88
2022-12-25T00:37:48.990Z,97073.66
2022-12-25T00:39:54.170Z,97073.66
2022-12-25T00:42:12.285Z,97074.47
2022-12-25T00:44:18.182Z,97073.66
2022-12-25T00:46:23.827Z,97077.88
2022-12-25T00:48:30.477Z,97078.16
2022-12-25T00:50:40.828Z,97065.75
2022-12-25T00:52:45.980Z,97068.13
2022-12-25T00:54:51.450Z,97059.44
2022-12-25T00:56:56.902Z,97060.22
2022-12-25T00:59:02.386Z,97053.13
2022-12-25T01:01:07.612Z,97058.91
2022-12-25T01:03:13.139Z,97059.69
2022-12-25T01:05:18.655Z,97068.13
2022-12-25T01:07:29.333Z,97066.03
2022-12-25T01:09:47.351Z,97065.75
2022-12-25T01:11:52.651Z,97071.84
2022-12-25T01:13:57.892Z,97075.25
2022-12-25T01:16:08.685Z,97076.31
2022-12-25T01:18:14.181Z,97080.28
2022-12-25T01:20:21.095Z,97079.50
2022-12-25T01:22:28.997Z,97077.63
2022-12-25T01:24:34.387Z,97071.56
2022-12-25T01:26:39.843Z,97071.56
2022-12-25T01:28:46.722Z,97078.41
2022-12-25T01:30:52.535Z,97081.88
2022-12-25T01:32:57.874Z,97068.94
2022-12-25T01:35:03.230Z,97065.50
2022-12-25T01:37:08.487Z,97062.59
2022-12-25T01:39:16.255Z,97067.09
2022-12-25T01:41:26.254Z,97066.31
2022-12-25T01:43:35.876Z,97063.66
2022-12-25T01:45:45.191Z,97065.50
2022-12-25T01:47:50.603Z,97069.97
2022-12-25T01:49:56.113Z,97075.78
2022-12-25T01:52:10.800Z,97085.25
2022-12-25T01:54:25.097Z,97088.44
2022-12-25T01:56:32.045Z,97084.19
2022-12-25T01:58:38.931Z,97090.53
2022-12-25T02:00:45.094Z,97092.38
2022-12-25T02:02:52.164Z,97089.22
2022-12-25T02:05:04.986Z,97092.13
2022-12-25T02:07:12.842Z,97087.88
2022-12-25T02:09:21.425Z,97087.38
2022-12-25T02:11:39.143Z,97076.00
2022-12-25T02:13:45.103Z,97081.03
2022-12-25T02:16:03.665Z,97088.38
2022-12-25T02:18:19.590Z,97074.94
2022-12-25T02:21:14.160Z,97082.34
2022-12-25T02:23:54.201Z,97084.41
2022-12-25T02:26:19.162Z,97078.59
2022-12-25T02:28:35.481Z,97085.16
2022-12-25T02:30:48.903Z,97082.53
2022-12-25T02:33:20.124Z,97085.16
2022-12-25T02:35:31.243Z,97078.31
2022-12-25T02:37:46.593Z,97086.22
2022-12-25T02:40:00.246Z,97088.31
2022-12-25T02:42:10.975Z,97083.06
2022-12-25T02:44:38.172Z,97073.56
2022-12-25T02:46:58.846Z,97075.69
2022-12-25T02:49:24.624Z,97071.72
2022-12-25T02:51:48.747Z,97068.28
2022-12-25T02:54:12.674Z,97074.84
2022-12-25T02:56:31.310Z,97072.22
2022-12-25T02:58:54.853Z,97070.63
2022-12-25T03:01:21.011Z,97067.22
2022-12-25T03:03:46.069Z,97056.69
2022-12-25T03:06:05.946Z,97056.69
2022-12-25T03:08:20.800Z,97056.13
2022-12-25T03:10:39.875Z,97064.59
2022-12-25T03:12:52.418Z,97057.97
2022-12-25T03:15:10.172Z,97061.41
2022-12-25T03:17:15.848Z,97055.59
2022-12-25T03:19:36.693Z,97055.59
2022-12-25T03:21:54.358Z,97061.66
2022-12-25T03:24:16.637Z,97061.91
2022-12-25T03:26:35.039Z,97062.19
2022-12-25T03:28:40.480Z,97056.38
2022-12-25T03:31:09.235Z,97057.16
2022-12-25T03:33:45.336Z,97054.78
2022-12-25T03:36:04.005Z,97044.53
2022-12-25T03:38:46.982Z,97041.09
2022-12-25T03:41:19.604Z,97037.66
2022-12-25T03:43:51.084Z,97036.88
2022-12-25T03:46:17.657Z,97043.44
2022-12-25T03:48:41.069Z,97035.03
2022-12-25T03:51:05.669Z,97034.47
2022-12-25T03:53:31.894Z,97034.72
2022-12-25T03:55:54.632Z,97035.81
2022-12-25T03:58:12.275Z,97040.00
2022-12-25T04:00:31.282Z,97031.56
2022-12-25T04:02:49.445Z,97027.91
2022-12-25T04:05:10.252Z,97023.69
2022-12-25T04:07:28.282Z,97018.94
2022-12-25T04:09:46.088Z,97021.56
2022-12-25T04:12:03.798Z,97016.84
2022-12-25T04:14:21.538Z,97027.13
2022-12-25T04:16:39.358Z,97020.78
2022-12-25T04:18:57.061Z,97020.56
2022-12-25T04:21:17.422Z,97026.59
2022-12-25T04:23:35.290Z,97013.44
2022-12-25T04:25:53.213Z,97016.06
2022-12-25T04:28:17.019Z,97028.69
2022-12-25T04:30:34.397Z,97027.63
2022-12-25T04:32:52.190Z,97023.94
2022-12-25T04:35:09.937Z,97015.78
2022-12-25T04:37:17.889Z,97007.34
2022-12-25T04:39:23.626Z,97018.66
2022-12-25T04:41:26.363Z,97016.59
2022-12-25T04:43:32.167Z,97009.72
2022-12-25T04:45:37.718Z,97010.50
2022-12-25T04:47:43.022Z,97013.97
2022-12-25T04:49:48.423Z,97017.63
2022-12-25T04:51:53.615Z,97011.31
2022-12-25T04:54:01.757Z,97009.47
2022-12-25T04:56:07.200Z,97003.41
2022-12-25T04:58:13.340Z,97004.97
2022-12-25T05:00:20.108Z,97003.16
2022-12-25T05:02:25.788Z,96993.41
2022-12-25T05:04:31.303Z,96995.00
2022-12-25T05:06:36.589Z,96993.16
2022-12-25T05:08:41.903Z,96987.09
2022-12-25T05:10:50.068Z,96990.50
2022-12-25T05:12:55.309Z,96986.06
2022-12-25T05:15:01.088Z,96982.63
2022-12-25T05:17:08.034Z,96992.09
2022-12-25T05:19:13.730Z,96996.59
2022-12-25T05:21:19.596Z,96998.16
2022-12-25T05:23:26.835Z,96988.94
2022-12-25T05:25:32.196Z,96995.00
2022-12-25T05:27:40.062Z,96996.84
2022-12-25T05:29:45.321Z,96994.22
2022-12-25T05:31:50.700Z,96989.72
2022-12-25T05:33:56.062Z,96995.78
2022-12-25T05:36:01.759Z,97002.34
2022-12-25T05:38:07.141Z,96999.50
2022-12-25T05:40:14.646Z,97003.41
2022-12-25T05:42:17.264Z,96995.53
2022-12-25T05:44:25.482Z,96999.19
2022-12-25T05:46:30.732Z,97003.13
2022-12-25T05:48:36.898Z,96995.75
2022-12-25T05:50:42.593Z,96995.22
2022-12-25T05:52:48.201Z,96995.50
2022-12-25T05:54:53.519Z,97003.13
2022-12-25T05:56:58.843Z,96991.00
2022-12-25T05:59:04.837Z,96986.78
2022-12-25T06:01:19.005Z,96992.59
2022-12-25T06:03:24.791Z,96997.59
2022-12-25T06:05:31.090Z,96993.94
2022-12-25T06:07:36.389Z,97001.84
2022-12-25T06:09:41.699Z,97004.47
2022-12-25T06:11:48.312Z,97001.03
2022-12-25T06:13:56.079Z,96997.59
2022-12-25T06:16:02.111Z,97001.28
2022-12-25T06:18:11.131Z,96992.59
2022-12-25T06:20:16.353Z,97001.53
2022-12-25T06:22:21.559Z,96998.91
2022-12-25T06:24:27.212Z,97007.06
2022-12-25T06:26:32.952Z,97001.28
2022-12-25T06:28:38.971Z,96991.22
2022-12-25T06:30:45.464Z,96996.75
2022-12-25T06:32:51.125Z,96992.56
2022-12-25T06:34:59.411Z,96995.47
2022-12-25T06:37:05.076Z,97000.72
2022-12-25T06:39:10.402Z,96993.88
2022-12-25T06:41:18.812Z,96994.91
2022-12-25T06:43:24.504Z,97000.44
2022-12-25T06:45:29.989Z,96998.84
2022-12-25T06:47:35.215Z,96997.28
2022-12-25T06:49:40.368Z,96987.00
2022-12-25T06:51:48.322Z,96990.69
2022-12-25T06:53:55.424Z,96988.03
2022-12-25T06:56:06.426Z,96992.53
2022-12-25T06:58:11.837Z,96989.09
2022-12-25T07:00:18.364Z,97001.72
2022-12-25T07:02:27.448Z,97011.72
2022-12-25T07:04:39.150Z,97018.81
2022-12-25T07:06:46.966Z,97011.94
2022-12-25T07:08:52.142Z,97013.28
2022-12-25T07:10:58.585Z,97011.69
2022-12-25T07:13:03.782Z,97022.47
2022-12-25T07:15:11.275Z,97019.31
2022-12-25T07:17:16.544Z,97012.47
2022-12-25T07:19:21.957Z,97016.91
2022-12-25T07:21:27.166Z,97014.53
2022-12-25T07:23:34.915Z,97011.13
2022-12-25T07:25:40.079Z,97011.66
2022-12-25T07:27:45.204Z,97019.31
2022-12-25T07:29:50.466Z,97023.50
2022-12-25T07:31:55.738Z,97005.91
2022-12-25T07:34:00.963Z,96994.56
2022-12-25T07:36:07.776Z,96993.25
2022-12-25T07:38:15.404Z,96995.63
2022-12-25T07:40:23.085Z,97001.69
2022-12-25T07:42:28.240Z,96997.75
2022-12-25T07:44:33.405Z,97008.28
2022-12-25T07:46:38.794Z,97008.03
2022-12-25T07:48:43.940Z,97017.78
2022-12-25T07:50:49.071Z,97013.28
2022-12-25T07:52:54.177Z,97022.50
2022-12-25T07:54:59.389Z,97013.59
2022-12-25T07:57:07.378Z,97005.44
2022-12-25T07:59:12.534Z,97009.38
2022-12-25T08:01:21.428Z,97007.28
2022-12-25T08:03:26.871Z,96998.09
2022-12-25T08:05:32.060Z,97000.97
2022-12-25T08:07:38.455Z,96997.06
2022-12-25T08:09:43.600Z,97000.22
2022-12-25T08:11:50.192Z,96994.16
2022-12-25T08:13:57.869Z,96988.94
2022-12-25T08:16:05.096Z,96990.00
2022-12-25T08:18:10.322Z,97000.78
2022-12-25T08:20:16.320Z,96998.97
2022-12-25T08:22:21.723Z,96991.31
2022-12-25T08:24:27.315Z,96992.63
2022-12-25T08:26:32.973Z,96991.06
2022-12-25T08:28:39.010Z,97000.28
2022-12-25T08:30:46.718Z,96991.59
2022-12-25T08:32:51.853Z,96988.19
2022-12-25T08:34:56.942Z,96999.00
2022-12-25T08:37:02.230Z,96991.38
2022-12-25T08:39:07.644Z,96988.22
2022-12-25T08:41:15.214Z,96991.38
2022-12-25T08:43:20.281Z,96996.38
2022-12-25T08:45:29.813Z,96996.41
2022-12-25T08:47:40.857Z,96991.13
2022-12-25T08:49:46.042Z,96986.66
2022-12-25T08:51:51.531Z,96968.22
2022-12-25T08:54:02.551Z,96969.28
2022-12-25T08:56:08.499Z,96970.03
2022-12-25T08:58:14.741Z,96989.56
2022-12-25T09:00:21.456Z,96991.41
2022-12-25T09:02:26.887Z,97004.59
2022-12-25T09:04:35.336Z,97011.97
2022-12-25T09:06:40.449Z,97002.22
2022-12-25T09:08:49.571Z,96999.59
2022-12-25T09:10:55.491Z,96996.69
2022-12-25T09:13:00.751Z,96993.25
2022-12-25T09:15:07.590Z,96985.31
2022-12-25T09:17:13.045Z,96989.00
2022-12-25T09:19:18.459Z,96985.81
2022-12-25T09:21:26.763Z,96990.28
2022-12-25T09:23:32.668Z,96978.09
2022-12-25T09:25:37.883Z,96979.09
2022-12-25T09:27:43.718Z,96970.91
2022-12-25T09:29:48.855Z,96970.31
2022-12-25T09:31:54.047Z,96966.34
2022-12-25T09:34:00.943Z,96968.66
2022-12-25T09:36:11.000Z,96971.03
2022-12-25T09:38:18.808Z,96968.59
2022-12-25T09:40:34.650Z,96969.31
2022-12-25T09:42:39.887Z,96970.56
2022-12-25T09:44:51.783Z,96961.53
2022-12-25T09:47:02.428Z,96950.31
2022-12-25T09:49:19.697Z,96952.03
2022-12-25T09:51:28.040Z,96954.00
2022-12-25T09:53:42.447Z,96943.84
2022-12-25T09:56:01.409Z,96942.16
2022-12-25T09:58:15.158Z,96950.00
2022-12-25T10:00:23.966Z,96951.19
2022-12-25T10:02:48.962Z,96959.78
2022-12-25T10:05:14.438Z,96957.25
2022-12-25T10:07:36.291Z,96969.34
2022-12-25T10:09:57.814Z,96964.22
2022-12-25T10:12:23.983Z,96963.00
2022-12-25T10:14:42.951Z,96969.16
2022-12-25T10:17:03.497Z,96964.72
2022-12-25T10:19:30.262Z,96969.28
2022-12-25T10:21:36.516Z,96972.31
2022-12-25T10:23:46.386Z,96965.78
2022-12-25T10:25:56.950Z,96965.59
2022-12-25T10:28:14.380Z,96960.13
2022-12-25T10:30:23.420Z,96967.94
2022-12-25T10:32:28.750Z,96958.03
2022-12-25T10:34:33.901Z,96959.53
2022-12-25T10:36:39.137Z,96962.06
2022-12-25T10:38:44.460Z,96947.94
2022-12-25T10:41:15.522Z,96945.78
2022-12-25T10:43:30.073Z,96943.31
2022-12-25T10:45:47.561Z,96936.03
2022-12-25T10:48:01.941Z,96921.59
2022-12-25T10:50:21.840Z,96924.66
2022-12-25T10:52:29.741Z,96920.81
2022-12-25T10:54:38.927Z,96913.53
2022-12-25T10:56:57.204Z,96905.94
2022-12-25T10:59:09.047Z,96907.88
2022-12-25T11:01:15.531Z,96900.28
2022-12-25T11:03:28.256Z,96900.66
2022-12-25T11:05:36.353Z,96894.34
2022-12-25T11:07:54.477Z,96895.81
2022-12-25T11:10:05.974Z,96893.34
2022-12-25T11:12:23.561Z,96888.22
2022-12-25T11:14:30.805Z,96888.09
2022-12-25T11:16:41.109Z,96888.31
2022-12-25T11:18:52.085Z,96871.44
2022-12-25T11:21:01.088Z,96888.06
2022-12-25T11:23:13.514Z,96887.66
2022-12-25T11:25:27.190Z,96887.50
2022-12-25T11:27:35.175Z,96875.66
2022-12-25T11:29:50.232Z,96879.78
2022-12-25T11:32:00.496Z,96882.31
2022-12-25T11:34:13.146Z,96875.59
2022-12-25T11:36:25.851Z,96877.94
2022-12-25T11:38:31.366Z,96872.13
2022-12-25T11:40:47.325Z,96870.09
2022-12-25T11:43:07.634Z,96854.72
2022-12-25T11:45:21.720Z,96852.06
2022-12-25T11:47:36.823Z,96858.78
2022-12-25T11:49:52.948Z,96853.00
2022-12-25T11:52:01.617Z,96850.47
2022-12-25T11:54:20.968Z,96850.59
2022-12-25T11:56:31.322Z,96847.16
2022-12-25T11:58:44.602Z,96846.97
2022-12-25T12:00:52.553Z,96847.88
2022-12-25T12:03:04.760Z,96846.19
2022-12-25T12:05:23.018Z,96838.88
2022-12-25T12:07:32.488Z,96832.47
2022-12-25T12:09:49.608Z,96834.09
2022-12-25T12:12:04.291Z,96830.09
2022-12-25T12:14:34.284Z,96825.13
2022-12-25T12:16:39.934Z,96821.69
2022-12-25T12:18:50.296Z,96828.59
2022-12-25T12:21:05.436Z,96827.31
2022-12-25T12:23:19.527Z,96822.94
2022-12-25T12:25:25.810Z,96819.00
2022-12-25T12:27:38.542Z,96818.53
2022-12-25T12:29:51.349Z,96809.78
2022-12-25T12:32:00.396Z,96791.47
2022-12-25T12:34:06.462Z,96780.50
2022-12-25T12:36:17.275Z,96783.16
2022-12-25T12:38:25.838Z,96788.94
2022-12-25T12:40:37.019Z,96795.34
2022-12-25T12:42:51.732Z,96802.56
2022-12-25T12:45:11.085Z,96797.88
2022-12-25T12:47:34.221Z,96793.16
2022-12-25T12:49:39.380Z,96792.06
2022-12-25T12:51:44.570Z,96787.53
2022-12-25T12:53:50.186Z,96782.06
2022-12-25T12:55:55.955Z,96777.22
2022-12-25T12:58:03.915Z,96768.94
2022-12-25T13:00:22.452Z,96772.38
2022-12-25T13:03:14.025Z,96765.50
2022-12-25T13:05:35.057Z,96759.38
2022-12-25T13:07:59.211Z,96762.84
2022-12-25T13:10:26.094Z,96772.38
2022-12-25T13:12:31.550Z,96775.34
2022-12-25T13:14:38.383Z,96780.19
2022-12-25T13:16:49.350Z,96782.84
2022-12-25T13:18:56.558Z,96780.66
2022-12-25T13:21:07.731Z,96779.56
2022-12-25T13:23:29.051Z,96775.03
2022-12-25T13:25:34.335Z,96780.22
2022-12-25T13:27:39.769Z,96776.94
2022-12-25T13:29:44.989Z,96779.59
2022-12-25T13:31:53.173Z,96777.41
2022-12-25T13:34:03.674Z,96775.53
2022-12-25T13:36:15.411Z,96778.81
2022-12-25T13:38:21.392Z,96775.38
2022-12-25T13:40:30.423Z,96779.41
2022-12-25T13:42:36.595Z,96767.84
2022-12-25T13:44:50.667Z,96756.25
2022-12-25T13:46:58.557Z,96756.84
2022-12-25T13:49:04.268Z,96752.94
2022-12-25T13:51:17.662Z,96746.50
2022-12-25T13:53:23.307Z,96751.16
2022-12-25T13:55:30.953Z,96748.00
2022-12-25T13:57:41.247Z,96742.53
2022-12-25T13:59:47.846Z,96747.34
2022-12-25T14:01:55.049Z,96750.94
2022-12-25T14:04:03.477Z,96754.38
2022-12-25T14:06:20.240Z,96755.09
2022-12-25T14:08:31.695Z,96752.88
2022-12-25T14:10:42.295Z,96755.66
2022-12-25T14:12:49.524Z,96755.47
2022-12-25T14:14:57.804Z,96746.88
2022-12-25T14:17:03.199Z,96751.97
2022-12-25T14:21:49.468Z,96738.56
2022-12-25T14:23:55.142Z,96746.16
2022-12-25T14:26:00.317Z,96746.09
2022-12-25T14:28:19.540Z,96750.38
2022-12-25T14:30:26.447Z,96751.13
2022-12-25T14:32:42.846Z,96747.59
2022-12-25T14:34:52.146Z,96754.09
2022-12-25T14:37:00.628Z,96743.91
2022-12-25T14:39:09.692Z,96748.03
2022-12-25T14:41:33.803Z,96746.88
2022-12-25T14:43:40.558Z,96746.50
2022-12-25T14:45:45.794Z,96747.38
2022-12-25T14:47:55.864Z,96761.53
2022-12-25T14:50:01.422Z,96762.69
2022-12-25T14:52:22.285Z,96771.06
2022-12-25T14:54:29.412Z,96762.41
2022-12-25T14:56:39.324Z,96763.28
2022-12-25T14:58:51.026Z,96767.13
2022-12-25T15:01:00.657Z,96765.34
2022-12-25T15:03:12.122Z,96767.59
2022-12-25T15:05:36.644Z,96769.56
2022-12-25T15:07:44.621Z,96768.56
2022-12-25T15:09:49.858Z,96779.78
2022-12-25T15:11:59.293Z,96775.63
2022-12-25T15:14:04.641Z,96781.81
2022-12-25T15:16:18.720Z,96780.31
2022-12-25T15:18:27.600Z,96772.72
2022-12-25T15:20:37.164Z,96766.47
2022-12-25T15:23:18.035Z,96771.84
2022-12-25T15:25:15.986Z,96763.75
2022-12-25T15:27:22.494Z,96772.09
2022-12-25T15:31:52.987Z,96764.41
2022-12-25T15:34:01.319Z,96761.84
2022-12-25T15:36:07.213Z,96756.13
2022-12-25T15:38:16.062Z,96758.84
2022-12-25T15:40:21.610Z,96746.75
2022-12-25T15:42:28.605Z,96733.31
2022-12-25T15:44:33.789Z,96740.25
2022-12-25T15:46:39.151Z,96741.13
2022-12-25T15:48:44.457Z,96736.97
2022-12-25T15:50:50.257Z,96743.91
2022-12-25T15:52:55.374Z,96742.91
2022-12-25T15:55:03.558Z,96745.91
2022-12-25T15:57:17.084Z,96745.44
2022-12-25T15:59:24.338Z,96747.13
2022-12-25T16:01:29.557Z,96745.09
2022-12-25T16:03:35.019Z,96756.28
2022-12-25T16:05:40.369Z,96747.91
2022-12-25T16:07:45.576Z,96760.91
2022-12-25T16:09:50.673Z,96754.63
2022-12-25T16:11:58.502Z,96752.53
2022-12-25T16:14:03.763Z,96763.16
2022-12-25T16:16:10.249Z,96764.00
2022-12-25T16:18:15.767Z,96755.06
2022-12-25T16:20:21.067Z,96765.66
2022-12-25T16:22:28.548Z,96756.22
2022-12-25T16:24:33.781Z,96759.44
2022-12-25T16:26:39.069Z,96767.88
2022-12-25T16:28:46.879Z,96767.19
2022-12-25T16:30:52.136Z,96768.78
2022-12-25T16:32:57.371Z,96764.34
2022-12-25T16:35:02.561Z,96760.97
2022-12-25T16:37:08.336Z,96749.88
2022-12-25T16:39:13.634Z,96746.19
2022-12-25T16:41:18.835Z,96753.13
2022-12-25T16:43:24.490Z,96750.25
2022-12-25T16:45:32.436Z,96755.59
2022-12-25T16:47:37.810Z,96745.81
2022-12-25T16:49:43.236Z,96742.19
2022-12-25T16:51:48.421Z,96741.66
2022-12-25T16:53:54.792Z,96751.16
2022-12-25T16:56:09.371Z,96743.25
2022-12-25T16:58:15.818Z,96746.94
2022-12-25T17:00:22.562Z,96745.88
2022-12-25T17:02:30.455Z,96744.81
2022-12-25T17:04:35.901Z,96751.94
2022-12-25T17:06:41.364Z,96745.09
2022-12-25T17:08:47.310Z,96744.06
2022-12-25T17:10:52.407Z,96754.09
2022-12-25T17:12:57.803Z,96749.38
2022-12-25T17:15:03.032Z,96750.72
2022-12-25T17:17:08.536Z,96747.56
2022-12-25T17:19:23.739Z,96742.84
2022-12-25T17:21:29.208Z,96750.53
2022-12-25T17:23:34.331Z,96754.25
2022-12-25T17:25:39.500Z,96747.94
2022-12-25T17:27:45.090Z,96744.59
2022-12-25T17:29:51.258Z,96748.81
2022-12-25T17:31:56.502Z,96739.09
2022-12-25T17:34:03.950Z,96743.34
2022-12-25T17:36:15.513Z,96737.03
2022-12-25T17:38:20.634Z,96730.97
2022-12-25T17:40:26.676Z,96733.84
2022-12-25T17:42:31.977Z,96736.00
2022-12-25T17:44:37.323Z,96741.53
2022-12-25T17:46:42.583Z,96742.09
2022-12-25T17:48:50.093Z,96736.03
2022-12-25T17:50:55.320Z,96736.56
2022-12-25T17:53:05.308Z,96741.59
2022-12-25T17:55:12.426Z,96725.00
2022-12-25T17:57:20.955Z,96736.84
2022-12-25T17:59:29.688Z,96736.91
2022-12-25T18:01:35.645Z,96734.00
2022-12-25T18:03:41.528Z,96735.09
2022-12-25T18:05:47.420Z,96744.59
2022-12-25T18:07:52.635Z,96729.59
2022-12-25T18:10:00.931Z,96734.38
2022-12-25T18:12:06.366Z,96738.31
2022-12-25T18:14:16.050Z,96740.69
2022-12-25T18:16:23.659Z,96742.53
2022-12-25T18:18:29.349Z,96747.31
2022-12-25T18:20:39.881Z,96746.78
2022-12-25T18:22:45.680Z,96729.91
2022-12-25T18:24:51.173Z,96744.97
2022-12-25T18:27:01.933Z,96756.03
2022-12-25T18:29:07.545Z,96771.34
2022-12-25T18:31:17.035Z,96753.16
2022-12-25T18:33:22.379Z,96748.97
2022-12-25T18:35:29.968Z,96760.31
2022-12-25T18:37:39.907Z,96748.47
2022-12-25T18:39:45.609Z,96766.38
2022-12-25T18:42:03.127Z,96755.81
2022-12-25T18:44:11.513Z,96755.59
2022-12-25T18:46:18.298Z,96764.53
2022-12-25T18:48:23.532Z,96744.25
2022-12-25T18:50:28.675Z,96785.09
2022-12-25T18:52:49.712Z,96771.16
2022-12-25T18:54:56.563Z,96775.91
2022-12-25T18:57:07.213Z,96774.31
2022-12-25T18:59:15.183Z,96745.88
2022-12-25T19:01:23.426Z,96775.66
2022-12-25T19:03:29.603Z,96751.69
2022-12-25T19:05:35.061Z,96755.88
2022-12-25T19:07:40.639Z,96753.00
2022-12-25T19:09:46.295Z,96750.63
2022-12-25T19:11:53.852Z,96753.53
2022-12-25T19:14:01.288Z,96759.84
2022-12-25T19:16:09.846Z,96764.34
2022-12-25T19:18:15.035Z,96763.53
2022-12-25T19:20:20.555Z,96756.69
2022-12-25T19:22:25.845Z,96771.69
2022-12-25T19:24:31.128Z,96764.84
2022-12-25T19:26:37.754Z,96763.00
2022-12-25T19:28:43.560Z,96757.19
2022-12-25T19:30:48.811Z,96758.28
2022-12-25T19:32:56.521Z,96765.38
2022-12-25T19:35:04.532Z,96760.38
2022-12-25T19:37:09.905Z,96759.84
2022-12-25T19:39:15.819Z,96760.13
2022-12-25T19:41:22.613Z,96761.69
2022-12-25T19:43:28.002Z,96768.78
2022-12-25T19:45:33.235Z,96766.16
2022-12-25T19:47:38.973Z,96776.69
2022-12-25T19:49:52.552Z,96777.72
2022-12-25T19:51:58.395Z,96775.34
2022-12-25T19:54:03.992Z,96774.84
2022-12-25T19:56:09.419Z,96768.25
2022-12-25T19:58:15.345Z,96773.78
2022-12-25T20:00:21.590Z,96771.41
2022-12-25T20:02:27.216Z,96777.97
2022-12-25T20:04:32.542Z,96780.88
2022-12-25T20:06:42.707Z,96782.22
2022-12-25T20:08:48.396Z,96776.41
2022-12-25T20:10:54.034Z,96779.31
2022-12-25T20:12:59.405Z,96782.19
2022-12-25T20:15:04.684Z,96785.09
2022-12-25T20:17:15.570Z,96787.72
2022-12-25T20:19:21.413Z,96779.03
2022-12-25T20:21:29.997Z,96787.72
2022-12-25T20:23:38.400Z,96779.81
2022-12-25T20:25:44.861Z,96784.03
2022-12-25T20:27:51.222Z,96780.34
2022-12-25T20:29:56.999Z,96773.78
2022-12-25T20:32:02.427Z,96775.09
2022-12-25T20:34:11.016Z,96779.84
2022-12-25T20:36:16.631Z,96775.38
2022-12-25T20:38:22.450Z,96774.06
2022-12-25T20:40:30.296Z,96778.00
2022-12-25T20:42:35.597Z,96778.53
2022-12-25T20:44:42.870Z,96782.50
2022-12-25T20:46:48.797Z,96778.53
2022-12-25T20:48:54.502Z,96781.16
2022-12-25T20:51:10.779Z,96772.22
2022-12-25T20:53:16.083Z,96769.06
2022-12-25T20:55:21.760Z,96773.28
2022-12-25T20:57:29.857Z,96771.97
2022-12-25T20:59:37.696Z,96776.69
2022-12-25T21:01:43.504Z,96780.13
2022-12-25T21:03:49.241Z,96771.16
2022-12-25T21:05:56.092Z,96774.06
2022-12-25T21:08:01.654Z,96772.50
2022-12-25T21:10:08.528Z,96776.69
2022-12-25T21:12:13.946Z,96775.09
2022-12-25T21:14:24.294Z,96779.06
2022-12-25T21:16:29.850Z,96784.84
2022-12-25T21:18:36.599Z,96789.06
2022-12-25T21:20:41.996Z,96793.28
2022-12-25T21:22:47.266Z,96794.59
2022-12-25T21:24:52.807Z,96803.00
2022-12-25T21:26:58.030Z,96801.97
2022-12-25T21:29:05.117Z,96801.69
2022-12-25T21:31:14.016Z,96807.75
2022-12-25T21:33:31.850Z,96807.22
2022-12-25T21:35:39.876Z,96810.66
2022-12-25T21:37:45.214Z,96813.81
2022-12-25T21:39:53.788Z,96815.41
2022-12-25T21:41:59.608Z,96813.53
2022-12-25T21:44:05.059Z,96819.88
2022-12-25T21:46:16.255Z,96828.03
2022-12-25T21:48:23.079Z,96828.81
2022-12-25T21:50:40.815Z,96835.13
2022-12-25T21:52:46.339Z,96844.13
2022-12-25T21:54:55.522Z,96837.25
2022-12-25T21:57:00.726Z,96851.19
2022-12-25T21:59:09.581Z,96844.38
2022-12-25T22:01:18.464Z,96852.00
2022-12-25T22:03:23.998Z,96846.22
2022-12-25T22:05:50.171Z,96848.84
2022-12-25T22:07:55.775Z,96854.91
2022-12-25T22:10:01.345Z,96847.53
2022-12-25T22:12:20.002Z,96842.00
2022-12-25T22:14:52.804Z,96851.75
2022-12-25T22:17:14.486Z,96845.97
2022-12-25T22:19:32.116Z,96860.44
2022-12-25T22:21:37.405Z,96852.25
2022-12-25T22:23:42.629Z,96857.00
2022-12-25T22:25:48.095Z,96850.41
2022-12-25T22:27:54.557Z,96856.75
2022-12-25T22:30:01.227Z,96859.66
2022-12-25T22:32:10.938Z,96864.38
2022-12-25T22:34:18.474Z,96860.16
2022-12-25T22:36:23.981Z,96858.59
2022-12-25T22:38:29.227Z,96861.22
2022-12-25T22:40:34.429Z,96856.72
2022-12-25T22:42:39.785Z,96850.41
2022-12-25T22:44:44.988Z,96859.09
2022-12-25T22:46:50.335Z,96854.88
2022-12-25T22:48:58.258Z,96855.94
2022-12-25T22:51:05.808Z,96862.25
2022-12-25T22:53:11.095Z,96863.31
2022-12-25T22:55:20.881Z,96862.78
2022-12-25T22:57:26.123Z,96870.41
2022-12-25T22:59:32.896Z,96859.88
2022-12-25T23:01:38.748Z,96862.78
2022-12-25T23:03:44.162Z,96860.16
2022-12-25T23:05:57.844Z,96856.75
2022-12-25T23:08:03.242Z,96864.38
2022-12-25T23:10:10.510Z,96867.78
2022-12-25T23:12:28.176Z,96865.94
2022-12-25T23:14:42.347Z,96871.75
2022-12-25T23:16:48.041Z,96865.41
2022-12-25T23:19:05.719Z,96864.63
2022-12-25T23:21:28.561Z,96862.00
2022-12-25T23:23:46.199Z,96864.63
2022-12-25T23:26:18.788Z,96865.41
2022-12-25T23:28:36.952Z,96865.41
2022-12-25T23:30:42.154Z,96865.41
2022-12-25T23:32:47.825Z,96861.72
2022-12-25T23:34:54.415Z,96862.50
2022-12-25T23:37:02.711Z,96878.06
2022-12-25T23:39:10.448Z,96874.38
2022-12-25T23:41:16.218Z,96874.91
2022-12-25T23:43:21.439Z,96875.44
2022-12-25T23:45:26.887Z,96874.38
2022-12-25T23:47:32.073Z,96871.75
2022-12-25T23:49:37.648Z,96868.56
2022-12-25T23:51:45.824Z,96875.69
2022-12-25T23:53:53.694Z,96872.53
2022-12-25T23:55:58.889Z,96881.75
2022-12-25T23:58:04.392Z,96873.06
